createdAt,value
2023-04-15T00:01:37.314Z,47.20
2023-04-15T00:04:05.146Z,46.60
2023-04-15T00:06:32.062Z,46.50
2023-04-15T00:08:59.081Z,46.50
2023-04-15T00:11:26.156Z,46.40
2023-04-15T00:13:53.100Z,46.90
2023-04-15T00:16:19.953Z,46.70
2023-04-15T00:18:47.163Z,46.70
2023-04-15T00:21:14.268Z,47.10
2023-04-15T00:23:41.162Z,47.60
2023-04-15T00:26:08.633Z,48.00
2023-04-15T00:28:35.497Z,48.00
2023-04-15T00:31:02.432Z,47.70
2023-04-15T00:33:29.275Z,48.30
2023-04-15T00:35:56.086Z,48.20
2023-04-15T00:38:23.191Z,47.90
2023-04-15T00:40:50.514Z,48.80
2023-04-15T00:43:17.675Z,49.40
2023-04-15T00:45:44.596Z,49.50
2023-04-15T00:48:12.165Z,49.90
2023-04-15T00:50:39.237Z,49.20
2023-04-15T00:53:06.195Z,50.90
2023-04-15T00:55:33.036Z,49.50
2023-04-15T00:57:59.907Z,49.00
2023-04-15T01:00:27.280Z,49.20
2023-04-15T19:55:25.417Z,51.00
2023-04-15T19:57:52.225Z,51.40
2023-04-15T20:00:19.086Z,52.00
2023-04-15T20:02:46.497Z,52.10
2023-04-15T20:05:13.920Z,52.30
2023-04-15T20:07:42.596Z,52.70
2023-04-15T20:10:12.997Z,52.70
2023-04-15T20:12:50.394Z,53.60
2023-04-15T20:15:19.857Z,54.40
2023-04-15T20:17:47.971Z,54.30
2023-04-15T20:20:15.058Z,55.30
2023-04-15T20:22:41.999Z,55.10
2023-04-15T20:25:09.396Z,56.60
2023-04-15T20:27:37.244Z,56.50
2023-04-15T20:30:05.125Z,56.60
2023-04-15T20:32:36.012Z,59.00
2023-04-15T20:35:05.601Z,57.40
2023-04-15T20:37:33.828Z,58.60
2023-04-15T20:40:01.406Z,59.90
2023-04-15T20:42:32.282Z,60.40
2023-04-15T20:44:59.220Z,61.90
2023-04-15T20:47:26.377Z,60.70
2023-04-15T20:49:54.125Z,61.00
2023-04-15T20:52:21.193Z,61.50
2023-04-15T20:54:48.045Z,62.90
2023-04-15T20:57:14.881Z,64.50
2023-04-15T20:59:41.711Z,63.60
2023-04-15T21:02:08.863Z,63.00
2023-04-15T21:04:37.968Z,64.10
2023-04-15T21:07:04.888Z,65.10
2023-04-15T21:09:31.796Z,66.70
2023-04-15T21:12:01.635Z,65.20
2023-04-15T21:14:29.219Z,65.60
2023-04-15T21:16:58.268Z,69.70
2023-04-15T21:19:25.244Z,68.20
2023-04-15T21:21:52.633Z,69.90
2023-04-15T21:24:19.776Z,72.30
2023-04-15T21:26:46.619Z,74.10
2023-04-15T21:29:13.703Z,70.00
2023-04-15T21:31:40.930Z,69.30
2023-04-15T21:34:08.100Z,71.00
2023-04-15T21:36:35.363Z,70.20
2023-04-15T21:39:02.244Z,69.40
2023-04-15T21:41:29.260Z,74.10
2023-04-15T21:43:56.129Z,74.70
2023-04-15T21:46:25.575Z,75.30
2023-04-15T21:48:59.446Z,75.40
2023-04-15T21:51:26.683Z,73.80
2023-04-15T21:53:53.561Z,75.00
2023-04-15T21:56:22.656Z,76.70
2023-04-15T21:58:50.117Z,80.00
2023-04-15T22:01:17.476Z,79.50
2023-04-15T22:03:46.105Z,77.70
2023-04-15T22:06:13.830Z,78.10
2023-04-15T22:08:54.952Z,82.10
2023-04-15T22:11:27.162Z,84.20
2023-04-15T22:13:55.198Z,84.60
2023-04-15T22:16:22.248Z,83.20
2023-04-15T22:18:49.224Z,79.00
2023-04-15T22:21:16.369Z,76.00
2023-04-15T22:23:47.535Z,73.00
2023-04-15T22:26:14.460Z,70.70
2023-04-15T22:28:41.824Z,68.70
2023-04-15T22:31:08.764Z,68.00
2023-04-15T22:33:35.753Z,67.20
2023-04-15T22:36:02.576Z,66.50
2023-04-15T22:38:29.405Z,66.20
2023-04-15T22:40:56.462Z,64.90
2023-04-15T22:43:23.287Z,63.60
2023-04-15T22:45:51.467Z,63.00
2023-04-15T22:48:18.979Z,61.80
2023-04-15T22:50:46.130Z,61.40
2023-04-15T22:53:13.187Z,61.30
2023-04-15T22:55:40.055Z,59.40
2023-04-15T22:58:06.846Z,58.30
2023-04-15T23:00:33.638Z,58.70
2023-04-15T23:03:00.716Z,58.90
2023-04-15T23:05:27.912Z,59.80
2023-04-15T23:07:54.730Z,59.90
2023-04-15T23:10:21.648Z,60.80
2023-04-15T23:12:48.460Z,61.60
2023-04-15T23:15:15.799Z,61.40
2023-04-15T23:17:43.378Z,61.70
2023-04-15T23:20:11.343Z,63.70
2023-04-15T23:22:38.628Z,64.80
2023-04-15T23:25:06.202Z,63.60
2023-04-15T23:27:33.593Z,64.30
2023-04-15T23:30:00.461Z,64.30
2023-04-15T23:32:27.718Z,64.90
2023-04-15T23:34:54.533Z,65.00
2023-04-15T23:37:21.392Z,66.90
2023-04-15T23:39:48.191Z,65.70
2023-04-15T23:42:17.433Z,67.10
2023-04-15T23:44:44.934Z,66.60
2023-04-15T23:47:11.805Z,66.60
2023-04-15T23:49:40.924Z,67.10
2023-04-15T23:52:08.029Z,69.60
2023-04-15T23:54:35.112Z,71.10
2023-04-15T23:57:03.505Z,69.50
2023-04-15T23:59:30.403Z,68.80
